sensor_id;sensor_type;location;lat;lon;timestamp;temperature;humidity
3705;DHT22;1868;48.918;9.438;2023-04-03T00:00:10;3.10;97.40
3705;DHT22;1868;48.918;9.438;2023-04-03T00:02:39;3.10;97.40
3705;DHT22;1868;48.918;9.438;2023-04-03T00:05:09;3.10;97.40
3705;DHT22;1868;48.918;9.438;2023-04-03T00:07:38;3.10;97.40
3705;DHT22;1868;48.918;9.438;2023-04-03T00:10:08;3.10;97.40
3705;DHT22;1868;48.918;9.438;2023-04-03T00:12:39;3.10;97.40
3705;DHT22;1868;48.918;9.438;2023-04-03T00:15:08;3.10;97.40
3705;DHT22;1868;48.918;9.438;2023-04-03T00:17:37;3.10;97.40
3705;DHT22;1868;48.918;9.438;2023-04-03T00:20:07;3.10;97.40
3705;DHT22;1868;48.918;9.438;2023-04-03T00:22:37;3.00;97.40
3705;DHT22;1868;48.918;9.438;2023-04-03T00:25:07;3.10;97.40
3705;DHT22;1868;48.918;9.438;2023-04-03T00:27:39;3.00;97.40
3705;DHT22;1868;48.918;9.438;2023-04-03T00:30:12;3.00;97.40
3705;DHT22;1868;48.918;9.438;2023-04-03T00:32:43;3.00;97.40
3705;DHT22;1868;48.918;9.438;2023-04-03T00:35:12;3.00;97.40
3705;DHT22;1868;48.918;9.438;2023-04-03T00:37:42;3.00;97.40
3705;DHT22;1868;48.918;9.438;2023-04-03T00:40:13;3.00;97.40
3705;DHT22;1868;48.918;9.438;2023-04-03T00:42:46;3.00;97.40
3705;DHT22;1868;48.918;9.438;2023-04-03T00:45:26;3.00;97.40
3705;DHT22;1868;48.918;9.438;2023-04-03T00:48:01;3.00;97.40
3705;DHT22;1868;48.918;9.438;2023-04-03T00:50:35;2.90;97.40
3705;DHT22;1868;48.918;9.438;2023-04-03T00:53:07;2.90;97.40
3705;DHT22;1868;48.918;9.438;2023-04-03T00:55:38;3.00;97.40
3705;DHT22;1868;48.918;9.438;2023-04-03T00:58:09;3.00;97.40
3705;DHT22;1868;48.918;9.438;2023-04-03T01:00:42;3.00;97.40
3705;DHT22;1868;48.918;9.438;2023-04-03T01:03:15;3.00;97.40
3705;DHT22;1868;48.918;9.438;2023-04-03T01:05:44;3.00;97.40
3705;DHT22;1868;48.918;9.438;2023-04-03T01:08:14;3.00;97.40
3705;DHT22;1868;48.918;9.438;2023-04-03T01:10:43;3.00;97.40
3705;DHT22;1868;48.918;9.438;2023-04-03T01:13:23;3.10;97.40
3705;DHT22;1868;48.918;9.438;2023-04-03T01:15:53;3.10;97.40
3705;DHT22;1868;48.918;9.438;2023-04-03T01:18:24;3.20;97.40
3705;DHT22;1868;48.918;9.438;2023-04-03T01:21:20;3.30;97.40
3705;DHT22;1868;48.918;9.438;2023-04-03T01:24:20;3.30;97.40
3705;DHT22;1868;48.918;9.438;2023-04-03T01:26:53;3.40;97.40
3705;DHT22;1868;48.918;9.438;2023-04-03T01:29:23;3.40;97.40
3705;DHT22;1868;48.918;9.438;2023-04-03T01:31:56;3.50;97.40
3705;DHT22;1868;48.918;9.438;2023-04-03T01:34:27;3.50;97.40
3705;DHT22;1868;48.918;9.438;2023-04-03T01:36:58;3.60;97.40
3705;DHT22;1868;48.918;9.438;2023-04-03T01:39:29;3.70;97.40
3705;DHT22;1868;48.918;9.438;2023-04-03T01:41:59;3.70;97.40
3705;DHT22;1868;48.918;9.438;2023-04-03T01:44:33;3.70;97.40
3705;DHT22;1868;48.918;9.438;2023-04-03T01:47:05;3.80;97.40
3705;DHT22;1868;48.918;9.438;2023-04-03T01:49:37;3.80;97.40
3705;DHT22;1868;48.918;9.438;2023-04-03T01:52:06;3.80;97.40
3705;DHT22;1868;48.918;9.438;2023-04-03T01:54:34;3.80;97.40
3705;DHT22;1868;48.918;9.438;2023-04-03T01:57:03;3.90;97.40
3705;DHT22;1868;48.918;9.438;2023-04-03T01:59:32;3.90;97.40
3705;DHT22;1868;48.918;9.438;2023-04-03T02:02:02;3.90;97.40
3705;DHT22;1868;48.918;9.438;2023-04-03T02:04:31;3.90;97.40
3705;DHT22;1868;48.918;9.438;2023-04-03T02:07:00;4.00;97.40
3705;DHT22;1868;48.918;9.438;2023-04-03T02:09:29;4.00;97.40
3705;DHT22;1868;48.918;9.438;2023-04-03T02:11:58;4.00;97.40
3705;DHT22;1868;48.918;9.438;2023-04-03T02:14:27;4.00;97.40
3705;DHT22;1868;48.918;9.438;2023-04-03T02:16:56;4.00;97.40
3705;DHT22;1868;48.918;9.438;2023-04-03T02:19:28;4.10;97.40
3705;DHT22;1868;48.918;9.438;2023-04-03T02:21:56;4.10;97.40
3705;DHT22;1868;48.918;9.438;2023-04-03T02:24:25;4.10;97.40
3705;DHT22;1868;48.918;9.438;2023-04-03T02:26:54;4.10;97.40
3705;DHT22;1868;48.918;9.438;2023-04-03T02:29:23;4.10;97.40
3705;DHT22;1868;48.918;9.438;2023-04-03T02:31:53;4.10;97.40
3705;DHT22;1868;48.918;9.438;2023-04-03T02:34:23;4.20;97.40
3705;DHT22;1868;48.918;9.438;2023-04-03T02:36:57;4.20;97.40
3705;DHT22;1868;48.918;9.438;2023-04-03T02:39:26;4.20;97.40
3705;DHT22;1868;48.918;9.438;2023-04-03T02:41:57;4.20;97.40
3705;DHT22;1868;48.918;9.438;2023-04-03T02:44:27;4.20;97.40
3705;DHT22;1868;48.918;9.438;2023-04-03T02:47:03;4.20;97.40
3705;DHT22;1868;48.918;9.438;2023-04-03T02:49:34;4.20;97.40
3705;DHT22;1868;48.918;9.438;2023-04-03T02:52:08;4.20;97.40
3705;DHT22;1868;48.918;9.438;2023-04-03T02:54:38;4.20;97.40
3705;DHT22;1868;48.918;9.438;2023-04-03T02:57:10;4.20;97.40
3705;DHT22;1868;48.918;9.438;2023-04-03T02:59:42;4.30;97.40
3705;DHT22;1868;48.918;9.438;2023-04-03T03:02:12;4.30;97.40
3705;DHT22;1868;48.918;9.438;2023-04-03T03:04:43;4.30;97.40
3705;DHT22;1868;48.918;9.438;2023-04-03T03:07:13;4.20;97.40
3705;DHT22;1868;48.918;9.438;2023-04-03T03:09:45;4.20;97.40
3705;DHT22;1868;48.918;9.438;2023-04-03T03:12:16;4.30;97.40
3705;DHT22;1868;48.918;9.438;2023-04-03T03:14:52;4.30;97.40
3705;DHT22;1868;48.918;9.438;2023-04-03T03:17:21;4.30;97.40
3705;DHT22;1868;48.918;9.438;2023-04-03T03:19:50;4.30;97.40
3705;DHT22;1868;48.918;9.438;2023-04-03T03:22:20;4.30;97.40
3705;DHT22;1868;48.918;9.438;2023-04-03T03:24:49;4.30;97.40
3705;DHT22;1868;48.918;9.438;2023-04-03T03:27:18;4.30;97.40
3705;DHT22;1868;48.918;9.438;2023-04-03T03:29:48;4.30;97.40
3705;DHT22;1868;48.918;9.438;2023-04-03T03:32:19;4.30;97.40
3705;DHT22;1868;48.918;9.438;2023-04-03T03:34:49;4.30;97.40
3705;DHT22;1868;48.918;9.438;2023-04-03T03:37:22;4.30;97.40
3705;DHT22;1868;48.918;9.438;2023-04-03T03:39:52;4.30;97.40
3705;DHT22;1868;48.918;9.438;2023-04-03T03:42:21;4.30;97.40
3705;DHT22;1868;48.918;9.438;2023-04-03T03:44:50;4.30;97.40
3705;DHT22;1868;48.918;9.438;2023-04-03T03:47:19;4.30;97.40
3705;DHT22;1868;48.918;9.438;2023-04-03T03:49:50;4.30;97.40
3705;DHT22;1868;48.918;9.438;2023-04-03T03:52:18;4.30;97.40
3705;DHT22;1868;48.918;9.438;2023-04-03T03:54:49;4.30;97.40
3705;DHT22;1868;48.918;9.438;2023-04-03T03:57:18;4.20;97.40
3705;DHT22;1868;48.918;9.438;2023-04-03T03:59:51;4.20;97.40
3705;DHT22;1868;48.918;9.438;2023-04-03T04:02:20;4.20;97.40
3705;DHT22;1868;48.918;9.438;2023-04-03T04:04:49;4.20;97.40
3705;DHT22;1868;48.918;9.438;2023-04-03T04:07:19;4.20;97.40
3705;DHT22;1868;48.918;9.438;2023-04-03T04:09:49;4.20;97.40
3705;DHT22;1868;48.918;9.438;2023-04-03T04:12:18;4.20;97.40
3705;DHT22;1868;48.918;9.438;2023-04-03T04:14:54;4.20;97.40
3705;DHT22;1868;48.918;9.438;2023-04-03T04:17:25;4.30;97.40
3705;DHT22;1868;48.918;9.438;2023-04-03T04:19:54;4.30;97.40
3705;DHT22;1868;48.918;9.438;2023-04-03T04:22:24;4.30;97.40
3705;DHT22;1868;48.918;9.438;2023-04-03T04:24:55;4.30;97.40
3705;DHT22;1868;48.918;9.438;2023-04-03T04:27:24;4.30;97.40
3705;DHT22;1868;48.918;9.438;2023-04-03T04:29:55;4.40;97.40
3705;DHT22;1868;48.918;9.438;2023-04-03T04:32:26;4.40;97.40
3705;DHT22;1868;48.918;9.438;2023-04-03T04:34:55;4.40;97.40
3705;DHT22;1868;48.918;9.438;2023-04-03T04:37:25;4.40;97.40
3705;DHT22;1868;48.918;9.438;2023-04-03T04:39:57;4.30;97.40
3705;DHT22;1868;48.918;9.438;2023-04-03T04:42:30;4.30;97.40
3705;DHT22;1868;48.918;9.438;2023-04-03T04:44:58;4.20;97.40
3705;DHT22;1868;48.918;9.438;2023-04-03T04:47:28;4.20;97.40
3705;DHT22;1868;48.918;9.438;2023-04-03T04:49:57;4.10;97.40
3705;DHT22;1868;48.918;9.438;2023-04-03T04:52:28;4.10;97.40
3705;DHT22;1868;48.918;9.438;2023-04-03T04:54:58;4.10;97.40
3705;DHT22;1868;48.918;9.438;2023-04-03T04:57:31;4.10;97.40
3705;DHT22;1868;48.918;9.438;2023-04-03T05:00:00;4.00;97.40
3705;DHT22;1868;48.918;9.438;2023-04-03T05:02:30;4.00;97.40
3705;DHT22;1868;48.918;9.438;2023-04-03T05:04:58;4.00;97.40
3705;DHT22;1868;48.918;9.438;2023-04-03T05:07:33;3.90;97.40
3705;DHT22;1868;48.918;9.438;2023-04-03T05:10:05;3.90;97.40
3705;DHT22;1868;48.918;9.438;2023-04-03T05:12:36;3.70;97.40
3705;DHT22;1868;48.918;9.438;2023-04-03T05:15:07;3.60;97.40
3705;DHT22;1868;48.918;9.438;2023-04-03T05:17:42;3.60;97.40
3705;DHT22;1868;48.918;9.438;2023-04-03T05:20:23;3.50;97.40
3705;DHT22;1868;48.918;9.438;2023-04-03T05:22:51;3.50;97.40
3705;DHT22;1868;48.918;9.438;2023-04-03T05:25:22;3.50;97.40
3705;DHT22;1868;48.918;9.438;2023-04-03T05:27:54;3.50;97.40
3705;DHT22;1868;48.918;9.438;2023-04-03T05:30:26;3.50;97.40
3705;DHT22;1868;48.918;9.438;2023-04-03T05:32:55;3.50;97.40
3705;DHT22;1868;48.918;9.438;2023-04-03T05:35:37;3.50;97.40
3705;DHT22;1868;48.918;9.438;2023-04-03T05:38:16;3.50;97.40
3705;DHT22;1868;48.918;9.438;2023-04-03T05:40:47;3.60;97.40
3705;DHT22;1868;48.918;9.438;2023-04-03T05:43:18;3.60;97.40
3705;DHT22;1868;48.918;9.438;2023-04-03T05:45:49;3.70;97.40
3705;DHT22;1868;48.918;9.438;2023-04-03T05:48:21;3.70;97.40
3705;DHT22;1868;48.918;9.438;2023-04-03T05:50:52;3.80;97.40
3705;DHT22;1868;48.918;9.438;2023-04-03T05:53:29;3.90;97.40
3705;DHT22;1868;48.918;9.438;2023-04-03T05:56:04;3.90;97.40
3705;DHT22;1868;48.918;9.438;2023-04-03T05:58:38;4.00;97.40
3705;DHT22;1868;48.918;9.438;2023-04-03T06:01:07;4.00;97.40
3705;DHT22;1868;48.918;9.438;2023-04-03T06:03:36;4.10;97.40
3705;DHT22;1868;48.918;9.438;2023-04-03T06:06:12;4.10;97.40
3705;DHT22;1868;48.918;9.438;2023-04-03T06:08:42;4.10;97.40
3705;DHT22;1868;48.918;9.438;2023-04-03T06:11:19;4.20;97.40
3705;DHT22;1868;48.918;9.438;2023-04-03T06:13:48;4.30;97.40
3705;DHT22;1868;48.918;9.438;2023-04-03T06:16:17;4.30;97.40
3705;DHT22;1868;48.918;9.438;2023-04-03T06:18:46;4.40;97.40
3705;DHT22;1868;48.918;9.438;2023-04-03T06:21:16;4.50;97.40
3705;DHT22;1868;48.918;9.438;2023-04-03T06:23:45;4.60;97.40
3705;DHT22;1868;48.918;9.438;2023-04-03T06:26:15;4.60;97.40
3705;DHT22;1868;48.918;9.438;2023-04-03T06:28:45;4.70;97.40
3705;DHT22;1868;48.918;9.438;2023-04-03T06:31:16;4.80;97.40
3705;DHT22;1868;48.918;9.438;2023-04-03T06:33:46;4.80;97.40
3705;DHT22;1868;48.918;9.438;2023-04-03T06:36:15;4.90;97.40
3705;DHT22;1868;48.918;9.438;2023-04-03T06:38:48;5.00;97.40
3705;DHT22;1868;48.918;9.438;2023-04-03T06:41:17;5.10;97.40
3705;DHT22;1868;48.918;9.438;2023-04-03T06:43:50;5.40;97.40
3705;DHT22;1868;48.918;9.438;2023-04-03T06:46:21;5.50;97.40
3705;DHT22;1868;48.918;9.438;2023-04-03T06:48:51;6.10;97.40
3705;DHT22;1868;48.918;9.438;2023-04-03T06:51:22;6.80;97.40
3705;DHT22;1868;48.918;9.438;2023-04-03T06:53:53;7.10;97.40
3705;DHT22;1868;48.918;9.438;2023-04-03T06:56:27;7.00;97.40
3705;DHT22;1868;48.918;9.438;2023-04-03T06:58:58;6.90;97.40
3705;DHT22;1868;48.918;9.438;2023-04-03T07:01:29;7.10;97.40
3705;DHT22;1868;48.918;9.438;2023-04-03T07:04:00;7.30;97.40
3705;DHT22;1868;48.918;9.438;2023-04-03T07:06:32;8.10;97.40
3705;DHT22;1868;48.918;9.438;2023-04-03T07:09:05;9.20;97.40
3705;DHT22;1868;48.918;9.438;2023-04-03T07:11:38;10.10;93.50
3705;DHT22;1868;48.918;9.438;2023-04-03T07:14:11;10.60;92.20
3705;DHT22;1868;48.918;9.438;2023-04-03T07:16:42;10.40;90.50
3705;DHT22;1868;48.918;9.438;2023-04-03T07:19:15;10.00;91.50
3705;DHT22;1868;48.918;9.438;2023-04-03T07:21:45;9.60;91.30
3705;DHT22;1868;48.918;9.438;2023-04-03T07:24:14;9.40;92.50
3705;DHT22;1868;48.918;9.438;2023-04-03T07:26:43;10.30;93.40
3705;DHT22;1868;48.918;9.438;2023-04-03T07:29:13;11.20;90.40
3705;DHT22;1868;48.918;9.438;2023-04-03T07:31:43;11.40;88.40
3705;DHT22;1868;48.918;9.438;2023-04-03T07:34:12;11.80;88.40
3705;DHT22;1868;48.918;9.438;2023-04-03T07:36:41;12.20;86.20
3705;DHT22;1868;48.918;9.438;2023-04-03T07:39:09;12.70;82.70
3705;DHT22;1868;48.918;9.438;2023-04-03T07:41:43;13.20;80.40
3705;DHT22;1868;48.918;9.438;2023-04-03T07:44:14;13.50;79.50
3705;DHT22;1868;48.918;9.438;2023-04-03T07:46:42;13.10;80.60
3705;DHT22;1868;48.918;9.438;2023-04-03T07:49:13;12.70;80.00
3705;DHT22;1868;48.918;9.438;2023-04-03T07:51:42;12.60;80.20
3705;DHT22;1868;48.918;9.438;2023-04-03T07:54:11;12.80;80.80
3705;DHT22;1868;48.918;9.438;2023-04-03T07:56:41;12.40;79.90
3705;DHT22;1868;48.918;9.438;2023-04-03T07:59:11;11.80;83.60
3705;DHT22;1868;48.918;9.438;2023-04-03T08:01:46;11.20;84.70
3705;DHT22;1868;48.918;9.438;2023-04-03T08:04:15;10.80;87.10
3705;DHT22;1868;48.918;9.438;2023-04-03T08:06:45;10.90;89.00
3705;DHT22;1868;48.918;9.438;2023-04-03T08:09:21;10.80;88.10
3705;DHT22;1868;48.918;9.438;2023-04-03T08:11:53;10.80;89.70
3705;DHT22;1868;48.918;9.438;2023-04-03T08:14:23;10.70;87.70
3705;DHT22;1868;48.918;9.438;2023-04-03T08:16:54;11.10;86.90
3705;DHT22;1868;48.918;9.438;2023-04-03T08:19:24;11.30;87.90
3705;DHT22;1868;48.918;9.438;2023-04-03T08:21:53;10.80;86.00
3705;DHT22;1868;48.918;9.438;2023-04-03T08:24:23;10.20;89.00
3705;DHT22;1868;48.918;9.438;2023-04-03T08:26:52;9.70;90.40
3705;DHT22;1868;48.918;9.438;2023-04-03T08:29:21;9.80;91.40
3705;DHT22;1868;48.918;9.438;2023-04-03T08:31:50;9.80;90.70
3705;DHT22;1868;48.918;9.438;2023-04-03T08:34:24;10.30;90.70
3705;DHT22;1868;48.918;9.438;2023-04-03T08:36:54;11.00;88.10
3705;DHT22;1868;48.918;9.438;2023-04-03T08:39:23;11.10;86.40
3705;DHT22;1868;48.918;9.438;2023-04-03T08:41:51;11.50;87.30
3705;DHT22;1868;48.918;9.438;2023-04-03T08:44:25;11.60;84.30
3705;DHT22;1868;48.918;9.438;2023-04-03T08:47:04;11.90;84.70
3705;DHT22;1868;48.918;9.438;2023-04-03T08:49:42;12.30;82.30
3705;DHT22;1868;48.918;9.438;2023-04-03T08:52:19;12.20;81.40
3705;DHT22;1868;48.918;9.438;2023-04-03T08:54:54;11.80;80.60
3705;DHT22;1868;48.918;9.438;2023-04-03T08:57:29;12.10;83.20
3705;DHT22;1868;48.918;9.438;2023-04-03T09:00:05;11.90;81.90
3705;DHT22;1868;48.918;9.438;2023-04-03T09:02:42;11.60;83.40
3705;DHT22;1868;48.918;9.438;2023-04-03T09:05:16;11.30;85.80
3705;DHT22;1868;48.918;9.438;2023-04-03T09:07:49;11.40;87.30
3705;DHT22;1868;48.918;9.438;2023-04-03T09:10:28;11.30;85.10
3705;DHT22;1868;48.918;9.438;2023-04-03T09:13:03;11.00;85.30
3705;DHT22;1868;48.918;9.438;2023-04-03T09:15:35;10.70;84.50
3705;DHT22;1868;48.918;9.438;2023-04-03T09:18:13;10.20;86.60
3705;DHT22;1868;48.918;9.438;2023-04-03T09:20:56;10.10;87.10
3705;DHT22;1868;48.918;9.438;2023-04-03T09:23:36;9.90;87.50
3705;DHT22;1868;48.918;9.438;2023-04-03T09:26:13;9.90;89.90
3705;DHT22;1868;48.918;9.438;2023-04-03T09:28:46;10.10;88.80
3705;DHT22;1868;48.918;9.438;2023-04-03T09:31:20;10.10;88.40
3705;DHT22;1868;48.918;9.438;2023-04-03T09:33:56;10.10;87.50
3705;DHT22;1868;48.918;9.438;2023-04-03T09:36:43;10.10;86.00
3705;DHT22;1868;48.918;9.438;2023-04-03T09:39:16;9.90;88.20
3705;DHT22;1868;48.918;9.438;2023-04-03T09:41:58;9.60;89.90
3705;DHT22;1868;48.918;9.438;2023-04-03T09:44:30;9.60;91.50
3705;DHT22;1868;48.918;9.438;2023-04-03T09:47:19;9.90;90.80
3705;DHT22;1868;48.918;9.438;2023-04-03T09:50:18;10.10;91.10
3705;DHT22;1868;48.918;9.438;2023-04-03T09:52:51;10.00;89.60
3705;DHT22;1868;48.918;9.438;2023-04-03T09:55:25;10.00;90.40
3705;DHT22;1868;48.918;9.438;2023-04-03T09:57:59;9.90;90.10
3705;DHT22;1868;48.918;9.438;2023-04-03T10:00:35;9.70;87.50
3705;DHT22;1868;48.918;9.438;2023-04-03T10:03:23;9.60;87.10
3705;DHT22;1868;48.918;9.438;2023-04-03T10:06:00;9.40;86.60
3705;DHT22;1868;48.918;9.438;2023-04-03T10:08:33;9.20;88.20
3705;DHT22;1868;48.918;9.438;2023-04-03T10:11:12;9.10;87.30
3705;DHT22;1868;48.918;9.438;2023-04-03T10:13:54;9.10;89.00
3705;DHT22;1868;48.918;9.438;2023-04-03T10:16:32;9.10;88.60
3705;DHT22;1868;48.918;9.438;2023-04-03T10:19:24;9.00;89.00
3705;DHT22;1868;48.918;9.438;2023-04-03T10:22:08;9.10;88.80
3705;DHT22;1868;48.918;9.438;2023-04-03T10:24:53;9.20;88.40
3705;DHT22;1868;48.918;9.438;2023-04-03T10:27:39;9.40;87.10
3705;DHT22;1868;48.918;9.438;2023-04-03T10:33:23;9.50;82.10
3705;DHT22;1868;48.918;9.438;2023-04-03T10:36:10;9.40;79.70
3705;DHT22;1868;48.918;9.438;2023-04-03T10:38:58;9.20;82.50
3705;DHT22;1868;48.918;9.438;2023-04-03T10:41:41;8.90;85.60
3705;DHT22;1868;48.918;9.438;2023-04-03T10:44:23;8.90;87.30
3705;DHT22;1868;48.918;9.438;2023-04-03T10:47:12;8.80;88.10
3705;DHT22;1868;48.918;9.438;2023-04-03T10:49:51;8.70;90.30
3705;DHT22;1868;48.918;9.438;2023-04-03T10:52:32;8.70;90.30
3705;DHT22;1868;48.918;9.438;2023-04-03T10:55:23;8.60;90.30
3705;DHT22;1868;48.918;9.438;2023-04-03T10:57:57;8.40;90.10
3705;DHT22;1868;48.918;9.438;2023-04-03T11:00:36;8.40;90.30
3705;DHT22;1868;48.918;9.438;2023-04-03T11:03:12;8.40;90.60
3705;DHT22;1868;48.918;9.438;2023-04-03T11:05:47;8.40;90.70
3705;DHT22;1868;48.918;9.438;2023-04-03T11:08:25;8.30;89.70
3705;DHT22;1868;48.918;9.438;2023-04-03T11:11:01;8.30;89.90
3705;DHT22;1868;48.918;9.438;2023-04-03T11:13:35;8.40;90.10
3705;DHT22;1868;48.918;9.438;2023-04-03T11:16:08;8.40;90.10
3705;DHT22;1868;48.918;9.438;2023-04-03T11:18:42;8.50;90.10
3705;DHT22;1868;48.918;9.438;2023-04-03T11:21:17;8.60;90.70
3705;DHT22;1868;48.918;9.438;2023-04-03T11:23:51;8.60;91.00
3705;DHT22;1868;48.918;9.438;2023-04-03T11:26:24;8.50;90.90
3705;DHT22;1868;48.918;9.438;2023-04-03T11:28:59;8.40;90.80
3705;DHT22;1868;48.918;9.438;2023-04-03T11:31:39;8.30;90.40
3705;DHT22;1868;48.918;9.438;2023-04-03T11:34:24;8.40;90.40
3705;DHT22;1868;48.918;9.438;2023-04-03T11:37:00;8.40;90.60
3705;DHT22;1868;48.918;9.438;2023-04-03T11:39:32;8.60;89.90
3705;DHT22;1868;48.918;9.438;2023-04-03T11:42:32;8.70;89.90
3705;DHT22;1868;48.918;9.438;2023-04-03T11:45:33;9.00;88.60
3705;DHT22;1868;48.918;9.438;2023-04-03T11:48:06;9.30;86.40
3705;DHT22;1868;48.918;9.438;2023-04-03T11:50:50;9.30;84.70
3705;DHT22;1868;48.918;9.438;2023-04-03T11:53:34;9.10;85.10
3705;DHT22;1868;48.918;9.438;2023-04-03T11:56:27;9.00;83.20
3705;DHT22;1868;48.918;9.438;2023-04-03T11:59:24;9.10;82.70
3705;DHT22;1868;48.918;9.438;2023-04-03T12:01:55;9.10;82.70
3705;DHT22;1868;48.918;9.438;2023-04-03T12:04:27;8.90;84.30
3705;DHT22;1868;48.918;9.438;2023-04-03T12:10:13;8.90;86.00
3705;DHT22;1868;48.918;9.438;2023-04-03T12:12:59;9.00;84.90
3705;DHT22;1868;48.918;9.438;2023-04-03T12:15:54;9.00;84.30
3705;DHT22;1868;48.918;9.438;2023-04-03T12:18:59;8.90;84.00
3705;DHT22;1868;48.918;9.438;2023-04-03T12:24:51;9.20;84.50
3705;DHT22;1868;48.918;9.438;2023-04-03T12:27:40;9.30;82.50
3705;DHT22;1868;48.918;9.438;2023-04-03T12:30:20;9.30;82.50
3705;DHT22;1868;48.918;9.438;2023-04-03T12:33:19;9.20;82.50
3705;DHT22;1868;48.918;9.438;2023-04-03T12:36:02;9.20;82.50
3705;DHT22;1868;48.918;9.438;2023-04-03T12:38:55;9.10;82.50
3705;DHT22;1868;48.918;9.438;2023-04-03T12:41:37;9.10;81.70
3705;DHT22;1868;48.918;9.438;2023-04-03T12:44:37;9.10;81.40
3705;DHT22;1868;48.918;9.438;2023-04-03T12:47:28;9.20;81.00
3705;DHT22;1868;48.918;9.438;2023-04-03T12:50:02;9.90;80.80
3705;DHT22;1868;48.918;9.438;2023-04-03T12:52:36;10.20;79.30
3705;DHT22;1868;48.918;9.438;2023-04-03T12:55:18;10.30;78.20
3705;DHT22;1868;48.918;9.438;2023-04-03T12:58:14;10.50;76.10
3705;DHT22;1868;48.918;9.438;2023-04-03T13:00:46;10.30;74.80
3705;DHT22;1868;48.918;9.438;2023-04-03T13:03:23;10.20;75.00
3705;DHT22;1868;48.918;9.438;2023-04-03T13:05:59;9.90;75.00
3705;DHT22;1868;48.918;9.438;2023-04-03T13:08:31;9.70;75.80
3705;DHT22;1868;48.918;9.438;2023-04-03T13:11:09;9.40;76.70
3705;DHT22;1868;48.918;9.438;2023-04-03T13:13:40;9.30;76.10
3705;DHT22;1868;48.918;9.438;2023-04-03T13:16:23;9.20;78.20
3705;DHT22;1868;48.918;9.438;2023-04-03T13:18:53;9.30;79.90
3705;DHT22;1868;48.918;9.438;2023-04-03T13:21:26;9.40;80.80
3705;DHT22;1868;48.918;9.438;2023-04-03T13:23:58;9.60;77.80
3705;DHT22;1868;48.918;9.438;2023-04-03T13:26:42;9.80;75.60
3705;DHT22;1868;48.918;9.438;2023-04-03T13:29:21;9.90;75.80
3705;DHT22;1868;48.918;9.438;2023-04-03T13:32:00;9.80;77.30
3705;DHT22;1868;48.918;9.438;2023-04-03T13:34:37;9.60;77.60
3705;DHT22;1868;48.918;9.438;2023-04-03T13:37:19;9.50;75.90
3705;DHT22;1868;48.918;9.438;2023-04-03T13:39:59;9.40;75.40
3705;DHT22;1868;48.918;9.438;2023-04-03T13:42:32;9.70;74.50
3705;DHT22;1868;48.918;9.438;2023-04-03T13:45:26;10.60;74.30
3705;DHT22;1868;48.918;9.438;2023-04-03T13:48:16;11.30;70.00
3705;DHT22;1868;48.918;9.438;2023-04-03T13:50:57;11.10;68.50
3705;DHT22;1868;48.918;9.438;2023-04-03T13:53:32;10.80;69.10
3705;DHT22;1868;48.918;9.438;2023-04-03T13:56:07;10.60;72.40
3705;DHT22;1868;48.918;9.438;2023-04-03T13:58:38;10.40;69.80
3705;DHT22;1868;48.918;9.438;2023-04-03T14:01:14;10.30;71.80
3705;DHT22;1868;48.918;9.438;2023-04-03T14:03:52;10.10;72.80
3705;DHT22;1868;48.918;9.438;2023-04-03T14:06:24;10.20;72.20
3705;DHT22;1868;48.918;9.438;2023-04-03T14:09:02;10.00;72.00
3705;DHT22;1868;48.918;9.438;2023-04-03T14:11:34;10.00;70.70
3705;DHT22;1868;48.918;9.438;2023-04-03T14:14:09;9.90;71.10
3705;DHT22;1868;48.918;9.438;2023-04-03T14:16:43;10.10;71.50
3705;DHT22;1868;48.918;9.438;2023-04-03T14:19:19;10.20;70.40
3705;DHT22;1868;48.918;9.438;2023-04-03T14:21:50;10.20;69.40
3705;DHT22;1868;48.918;9.438;2023-04-03T14:24:22;10.20;70.70
3705;DHT22;1868;48.918;9.438;2023-04-03T14:26:53;10.20;71.30
3705;DHT22;1868;48.918;9.438;2023-04-03T14:29:24;10.10;68.90
3705;DHT22;1868;48.918;9.438;2023-04-03T14:31:53;9.80;70.70
3705;DHT22;1868;48.918;9.438;2023-04-03T14:34:40;9.80;71.10
3705;DHT22;1868;48.918;9.438;2023-04-03T14:37:17;9.60;70.20
3705;DHT22;1868;48.918;9.438;2023-04-03T14:39:50;9.50;70.20
3705;DHT22;1868;48.918;9.438;2023-04-03T14:42:23;9.40;69.80
3705;DHT22;1868;48.918;9.438;2023-04-03T14:44:55;9.40;71.10
3705;DHT22;1868;48.918;9.438;2023-04-03T14:47:28;9.30;72.60
3705;DHT22;1868;48.918;9.438;2023-04-03T14:49:59;9.20;72.00
3705;DHT22;1868;48.918;9.438;2023-04-03T14:52:36;9.10;72.20
3705;DHT22;1868;48.918;9.438;2023-04-03T14:55:09;9.20;70.70
3705;DHT22;1868;48.918;9.438;2023-04-03T14:57:41;9.20;71.50
3705;DHT22;1868;48.918;9.438;2023-04-03T15:00:14;9.30;73.20
3705;DHT22;1868;48.918;9.438;2023-04-03T15:02:51;9.50;71.30
3705;DHT22;1868;48.918;9.438;2023-04-03T15:05:22;9.80;70.90
3705;DHT22;1868;48.918;9.438;2023-04-03T15:07:55;10.40;69.80
3705;DHT22;1868;48.918;9.438;2023-04-03T15:10:30;10.80;68.90
3705;DHT22;1868;48.918;9.438;2023-04-03T15:12:59;10.80;65.90
3705;DHT22;1868;48.918;9.438;2023-04-03T15:15:29;10.80;67.20
3705;DHT22;1868;48.918;9.438;2023-04-03T15:18:00;10.70;68.70
3705;DHT22;1868;48.918;9.438;2023-04-03T15:20:29;10.50;66.80
3705;DHT22;1868;48.918;9.438;2023-04-03T15:23:01;10.20;68.30
3705;DHT22;1868;48.918;9.438;2023-04-03T15:25:40;10.00;67.70
3705;DHT22;1868;48.918;9.438;2023-04-03T15:28:18;9.80;71.80
3705;DHT22;1868;48.918;9.438;2023-04-03T15:30:51;9.60;70.00
3705;DHT22;1868;48.918;9.438;2023-04-03T15:33:20;9.50;72.20
3705;DHT22;1868;48.918;9.438;2023-04-03T15:35:50;9.40;73.70
3705;DHT22;1868;48.918;9.438;2023-04-03T15:38:39;9.50;71.50
3705;DHT22;1868;48.918;9.438;2023-04-03T15:41:11;9.40;71.10
3705;DHT22;1868;48.918;9.438;2023-04-03T15:43:43;10.00;70.50
3705;DHT22;1868;48.918;9.438;2023-04-03T15:46:14;10.80;69.10
3705;DHT22;1868;48.918;9.438;2023-04-03T15:48:42;10.90;67.90
3705;DHT22;1868;48.918;9.438;2023-04-03T15:51:12;10.70;68.50
3705;DHT22;1868;48.918;9.438;2023-04-03T15:53:45;10.50;64.80
3705;DHT22;1868;48.918;9.438;2023-04-03T15:56:17;10.40;64.80
3705;DHT22;1868;48.918;9.438;2023-04-03T15:58:51;10.20;65.10
3705;DHT22;1868;48.918;9.438;2023-04-03T16:01:19;10.10;67.90
3705;DHT22;1868;48.918;9.438;2023-04-03T16:03:51;9.90;68.10
3705;DHT22;1868;48.918;9.438;2023-04-03T16:06:25;9.80;69.40
3705;DHT22;1868;48.918;9.438;2023-04-03T16:08:56;9.50;69.20
3705;DHT22;1868;48.918;9.438;2023-04-03T16:11:28;9.30;69.80
3705;DHT22;1868;48.918;9.438;2023-04-03T16:14:05;9.10;70.40
3705;DHT22;1868;48.918;9.438;2023-04-03T16:16:35;9.10;70.20
3705;DHT22;1868;48.918;9.438;2023-04-03T16:19:07;9.10;69.40
3705;DHT22;1868;48.918;9.438;2023-04-03T16:21:39;9.10;68.90
3705;DHT22;1868;48.918;9.438;2023-04-03T16:24:08;9.60;70.20
3705;DHT22;1868;48.918;9.438;2023-04-03T16:26:47;9.50;69.80
3705;DHT22;1868;48.918;9.438;2023-04-03T16:29:17;9.40;70.90
3705;DHT22;1868;48.918;9.438;2023-04-03T16:31:49;9.30;71.70
3705;DHT22;1868;48.918;9.438;2023-04-03T16:34:19;9.20;72.20
3705;DHT22;1868;48.918;9.438;2023-04-03T16:36:50;9.00;73.70
3705;DHT22;1868;48.918;9.438;2023-04-03T16:39:24;8.80;71.80
3705;DHT22;1868;48.918;9.438;2023-04-03T16:41:54;8.70;70.20
3705;DHT22;1868;48.918;9.438;2023-04-03T16:44:25;8.60;72.80
3705;DHT22;1868;48.918;9.438;2023-04-03T16:46:53;8.40;72.40
3705;DHT22;1868;48.918;9.438;2023-04-03T16:49:28;8.30;73.70
3705;DHT22;1868;48.918;9.438;2023-04-03T16:51:59;8.20;74.30
3705;DHT22;1868;48.918;9.438;2023-04-03T16:54:29;8.20;76.30
3705;DHT22;1868;48.918;9.438;2023-04-03T16:57:01;8.10;75.40
3705;DHT22;1868;48.918;9.438;2023-04-03T16:59:30;8.10;75.00
3705;DHT22;1868;48.918;9.438;2023-04-03T17:01:59;8.10;75.00
3705;DHT22;1868;48.918;9.438;2023-04-03T17:04:32;8.10;73.90
3705;DHT22;1868;48.918;9.438;2023-04-03T17:07:01;8.10;75.60